createdAt,value
2019-06-26T00:02:29.203Z,100588.30
2019-06-26T00:07:34.371Z,100597.20
2019-06-26T00:12:39.162Z,100600.87
2019-06-26T00:17:43.986Z,100611.77
2019-06-26T00:22:48.899Z,100606.11
2019-06-26T00:27:54.054Z,100608.58
2019-06-26T00:32:58.801Z,100602.87
2019-06-26T00:38:03.647Z,100590.36
2019-06-26T00:43:08.356Z,100603.52
2019-06-26T00:48:13.135Z,100603.30
2019-06-26T00:53:17.897Z,100601.95
2019-06-26T00:58:22.640Z,100609.30
2019-06-26T01:03:27.395Z,100588.88
2019-06-26T01:08:32.207Z,100595.58
2019-06-26T01:13:36.939Z,100589.80
2019-06-26T01:18:41.783Z,100595.05
2019-06-26T01:23:46.857Z,100591.33
2019-06-26T01:28:51.924Z,100589.31
2019-06-26T01:33:56.939Z,100583.97
2019-06-26T01:39:02.083Z,100586.48
2019-06-26T01:44:14.772Z,100585.19
2019-06-26T01:49:13.765Z,100591.88
2019-06-26T01:54:18.432Z,100584.07
2019-06-26T01:59:23.273Z,100583.23
2019-06-26T02:04:27.939Z,100577.30
2019-06-26T02:09:32.748Z,100586.50
2019-06-26T02:14:37.552Z,100584.09
2019-06-26T02:19:42.370Z,100581.97
2019-06-26T02:24:47.320Z,100578.52
2019-06-26T02:29:52.129Z,100584.82
2019-06-26T02:34:57.076Z,100590.84
2019-06-26T02:40:02.002Z,100594.69
2019-06-26T02:45:07.352Z,100590.80
2019-06-26T02:50:12.320Z,100596.66
2019-06-26T02:55:17.070Z,100592.36
2019-06-26T03:00:21.903Z,100592.87
2019-06-26T03:05:26.715Z,100578.37
2019-06-26T03:10:31.440Z,100594.92
2019-06-26T03:15:36.262Z,100585.33
2019-06-26T03:20:44.990Z,100596.09
2019-06-26T03:25:49.835Z,100588.63
2019-06-26T03:30:54.591Z,100600.98
2019-06-26T03:35:59.403Z,100597.50
2019-06-26T03:41:04.338Z,100603.26
2019-06-26T03:46:09.120Z,100609.03
2019-06-26T03:51:14.311Z,100613.45
2019-06-26T03:56:19.235Z,100622.80
2019-06-26T04:01:23.990Z,100627.47
2019-06-26T04:06:28.790Z,100635.30
2019-06-26T04:11:33.545Z,100638.76
2019-06-26T04:16:38.171Z,100639.64
2019-06-26T04:21:42.866Z,100649.65
2019-06-26T04:26:47.622Z,100657.80
2019-06-26T04:31:52.339Z,100655.41
2019-06-26T04:36:57.394Z,100654.84
2019-06-26T04:42:02.598Z,100655.89
2019-06-26T04:47:07.434Z,100661.06
2019-06-26T04:52:12.185Z,100664.20
2019-06-26T04:57:17.202Z,100653.61
2019-06-26T05:02:21.965Z,100669.67
2019-06-26T05:07:26.790Z,100664.55
2019-06-26T05:12:31.601Z,100662.80
2019-06-26T05:17:36.467Z,100663.05
2019-06-26T05:22:41.179Z,100679.28
2019-06-26T05:27:46.315Z,100688.27
2019-06-26T05:32:51.065Z,100680.16
2019-06-26T05:37:56.210Z,100689.41
2019-06-26T05:43:01.779Z,100698.78
2019-06-26T05:48:06.550Z,100693.49
2019-06-26T05:53:11.294Z,100692.92
2019-06-26T05:58:16.148Z,100689.88
2019-06-26T06:03:21.121Z,100676.16
2019-06-26T06:08:25.886Z,100676.14
2019-06-26T06:13:30.714Z,100658.72
2019-06-26T06:18:35.811Z,100646.36
2019-06-26T06:23:40.586Z,100649.04
2019-06-26T06:28:45.422Z,100649.76
2019-06-26T06:33:50.298Z,100677.84
2019-06-26T06:38:55.146Z,100694.84
2019-06-26T06:44:00.148Z,100678.87
2019-06-26T06:49:05.039Z,100675.03
2019-06-26T06:54:10.358Z,100678.47
2019-06-26T06:59:15.147Z,100682.59
2019-06-26T07:04:20.226Z,100686.88
2019-06-26T07:09:24.966Z,100706.96
2019-06-26T07:14:29.786Z,100712.83
2019-06-26T07:19:34.841Z,100716.03
2019-06-26T07:24:39.825Z,100726.39
2019-06-26T07:29:44.646Z,100736.45
2019-06-26T07:34:49.779Z,100742.59
2019-06-26T07:40:00.301Z,100757.96
2019-06-26T07:45:02.639Z,100767.69
2019-06-26T07:50:08.194Z,100771.19
2019-06-26T07:55:13.238Z,100763.80
2019-06-26T08:00:18.482Z,100765.90
2019-06-26T08:05:23.239Z,100785.97
2019-06-26T08:10:28.096Z,100788.31
2019-06-26T08:15:33.098Z,100786.02
2019-06-26T08:20:51.922Z,100778.44
2019-06-26T08:25:44.898Z,100763.95
2019-06-26T08:30:49.883Z,100772.98
2019-06-26T08:35:54.682Z,100761.41
2019-06-26T08:40:59.765Z,100767.02
2019-06-26T08:46:04.654Z,100790.36
2019-06-26T08:51:09.478Z,100789.58
2019-06-26T08:56:14.331Z,100788.58
2019-06-26T09:01:19.406Z,100795.42
2019-06-26T09:06:24.447Z,100779.94
2019-06-26T09:11:29.318Z,100789.53
2019-06-26T09:16:34.082Z,100795.70
2019-06-26T09:21:38.838Z,100800.72
2019-06-26T09:26:43.983Z,100796.63
2019-06-26T09:31:48.840Z,100786.69
2019-06-26T09:36:53.759Z,100785.61
2019-06-26T09:41:58.579Z,100781.94
2019-06-26T09:47:03.409Z,100786.12
2019-06-26T09:52:08.266Z,100776.96
2019-06-26T09:57:13.058Z,100776.37
2019-06-26T10:02:18.018Z,100783.70
2019-06-26T10:07:22.879Z,100773.14
2019-06-26T10:12:27.743Z,100782.00
2019-06-26T10:17:32.537Z,100789.63
2019-06-26T10:22:37.301Z,100775.36
2019-06-26T10:27:42.710Z,100762.96
2019-06-26T10:32:47.855Z,100771.30
2019-06-26T10:37:53.114Z,100777.05
2019-06-26T10:42:58.409Z,100774.83
2019-06-26T10:48:03.467Z,100765.26
2019-06-26T10:53:08.666Z,100749.97
2019-06-26T10:58:13.586Z,100750.52
2019-06-26T11:03:18.719Z,100763.75
2019-06-26T11:08:23.843Z,100764.16
2019-06-26T11:13:28.899Z,100762.59
2019-06-26T11:18:33.783Z,100766.06
2019-06-26T11:23:38.758Z,100788.80
2019-06-26T11:28:43.786Z,100787.45
2019-06-26T11:33:48.679Z,100784.75
2019-06-26T11:38:53.550Z,100775.36
2019-06-26T11:43:58.372Z,100779.30
2019-06-26T11:49:03.857Z,100753.45
2019-06-26T11:54:09.000Z,100738.87
2019-06-26T11:59:13.878Z,100736.73
2019-06-26T12:04:19.119Z,100738.65
2019-06-26T12:09:23.959Z,100737.11
2019-06-26T12:14:30.762Z,100734.32
2019-06-26T12:19:35.851Z,100727.03
2019-06-26T12:24:40.776Z,100722.05
2019-06-26T12:29:45.798Z,100707.91
2019-06-26T12:34:50.700Z,100700.61
2019-06-26T12:39:55.461Z,100707.13
2019-06-26T12:45:00.475Z,100714.80
2019-06-26T12:50:06.058Z,100710.31
2019-06-26T12:55:11.567Z,100717.36
2019-06-26T13:00:16.927Z,100714.20
2019-06-26T13:05:21.886Z,100716.98
2019-06-26T13:10:27.138Z,100706.92
2019-06-26T13:15:32.329Z,100709.84
2019-06-26T13:20:51.732Z,100698.42
2019-06-26T13:25:43.887Z,100704.50
2019-06-26T13:30:48.753Z,100701.11
2019-06-26T13:35:53.607Z,100696.00
2019-06-26T13:40:58.589Z,100691.53
2019-06-26T13:46:03.378Z,100692.29
2019-06-26T13:51:10.108Z,100680.29
2019-06-26T13:56:14.924Z,100678.02
2019-06-26T14:01:22.997Z,100671.05
2019-06-26T14:06:27.190Z,100662.36
2019-06-26T14:11:31.998Z,100653.61
2019-06-26T14:16:37.159Z,100654.39
2019-06-26T14:21:42.278Z,100652.75
2019-06-26T14:26:47.198Z,100640.47
2019-06-26T14:31:52.499Z,100635.00
2019-06-26T14:36:57.227Z,100621.18
2019-06-26T14:42:02.093Z,100618.16
2019-06-26T14:47:07.031Z,100613.66
2019-06-26T14:52:11.994Z,100601.58
2019-06-26T14:57:16.886Z,100602.03
2019-06-26T15:02:21.755Z,100595.67
2019-06-26T15:07:26.614Z,100582.37
2019-06-26T15:12:31.518Z,100574.23
2019-06-26T15:17:36.363Z,100573.02
2019-06-26T15:22:41.578Z,100574.55
2019-06-26T15:27:46.655Z,100574.39
2019-06-26T15:32:51.659Z,100573.69
2019-06-26T15:37:56.528Z,100577.69
2019-06-26T15:43:01.781Z,100572.92
2019-06-26T15:48:06.842Z,100567.52
2019-06-26T15:53:12.638Z,100548.03
2019-06-26T15:58:17.528Z,100542.70
2019-06-26T16:03:22.400Z,100529.35
2019-06-26T16:08:27.351Z,100518.66
2019-06-26T16:13:32.339Z,100523.69
2019-06-26T16:18:43.137Z,100523.88
2019-06-26T16:23:48.158Z,100523.25
2019-06-26T16:28:53.088Z,100510.00
2019-06-26T16:33:58.023Z,100507.14
2019-06-26T16:39:02.797Z,100505.49
2019-06-26T16:44:07.837Z,100507.87
2019-06-26T16:49:12.611Z,100491.27
2019-06-26T16:54:17.683Z,100501.47
2019-06-26T16:59:22.767Z,100497.05
2019-06-26T17:04:27.598Z,100489.64
2019-06-26T17:09:32.438Z,100487.55
2019-06-26T17:14:37.467Z,100472.33
2019-06-26T17:19:42.199Z,100472.53
2019-06-26T17:24:47.128Z,100469.02
2019-06-26T17:29:51.869Z,100464.09
2019-06-26T17:34:56.985Z,100465.00
2019-06-26T17:40:01.847Z,100459.95
2019-06-26T17:45:07.139Z,100454.37
2019-06-26T17:50:12.239Z,100445.22
2019-06-26T17:55:18.474Z,100457.45
2019-06-26T18:00:27.267Z,100457.24
2019-06-26T18:36:33.817Z,100494.90
2019-06-26T18:41:38.590Z,100493.01
2019-06-26T18:46:43.459Z,100496.29
2019-06-26T18:51:48.438Z,100502.76
2019-06-26T18:56:53.211Z,100506.21
2019-06-26T19:01:57.992Z,100508.23
2019-06-26T19:07:03.052Z,100506.34
2019-06-26T19:12:07.691Z,100503.21
2019-06-26T19:17:12.668Z,100508.45
2019-06-26T19:22:17.490Z,100505.58
2019-06-26T19:27:22.173Z,100507.34
2019-06-26T19:32:26.811Z,100522.02
2019-06-26T19:37:31.671Z,100523.16
2019-06-26T19:42:36.630Z,100526.44
2019-06-26T19:47:41.370Z,100526.94
2019-06-26T19:52:46.344Z,100526.53
2019-06-26T19:57:51.554Z,100523.42
2019-06-26T20:02:56.531Z,100529.80
2019-06-26T20:08:01.894Z,100529.24
2019-06-26T20:13:07.087Z,100529.81
2019-06-26T20:18:12.172Z,100534.48
2019-06-26T20:23:17.007Z,100533.24
2019-06-26T20:28:21.855Z,100551.09
2019-06-26T20:33:26.602Z,100551.05
2019-06-26T20:38:31.363Z,100561.30
2019-06-26T20:43:36.403Z,100566.53
2019-06-26T20:48:41.211Z,100568.42
2019-06-26T20:53:45.971Z,100579.02
2019-06-26T20:58:50.982Z,100582.86
2019-06-26T21:03:55.840Z,100583.60
2019-06-26T21:09:00.531Z,100579.96
2019-06-26T21:14:05.608Z,100582.43
2019-06-26T21:19:10.651Z,100591.14
2019-06-26T21:24:15.540Z,100597.88
2019-06-26T21:29:20.239Z,100605.91
2019-06-26T21:34:25.191Z,100588.36
2019-06-26T21:39:29.939Z,100591.64
2019-06-26T21:44:34.708Z,100595.98
2019-06-26T21:49:39.519Z,100599.84
2019-06-26T21:54:44.331Z,100604.08
2019-06-26T21:59:49.251Z,100601.88
2019-06-26T22:04:53.991Z,100601.05
2019-06-26T22:09:58.927Z,100593.74
2019-06-26T22:15:03.767Z,100590.05
2019-06-26T22:20:12.559Z,100592.51
2019-06-26T22:25:15.622Z,100594.95
2019-06-26T22:30:20.685Z,100607.88
2019-06-26T22:35:25.686Z,100596.36
2019-06-26T22:40:30.404Z,100592.25
2019-06-26T22:45:35.155Z,100609.82
2019-06-26T22:50:40.030Z,100608.02
2019-06-26T22:55:44.703Z,100599.03
2019-06-26T23:00:49.580Z,100607.80
2019-06-26T23:05:54.422Z,100600.98
2019-06-26T23:10:59.231Z,100601.70
2019-06-26T23:16:04.469Z,100602.02
2019-06-26T23:21:09.319Z,100609.50
2019-06-26T23:26:23.614Z,100617.84
2019-06-26T23:31:20.517Z,100619.05
2019-06-26T23:36:25.197Z,100605.98
2019-06-26T23:41:29.844Z,100610.05
2019-06-26T23:46:34.515Z,100609.00
2019-06-26T23:51:39.115Z,100606.54
2019-06-26T23:56:43.775Z,100602.42
